Velserdijk — PBIC — position and weather

sailwx.info

Track history (hours):
 
Tides and Currents Weather Stations Pressure Air Temp Water Temp Dewpoint Dewpoint Depression Visibility Wind Speed Wind Dir Waves Ship Positions

Velserdijk

Last reported at 2018-May-21 06:30 UTC. Time now 2018-May-21 06:35 UTC.
Position N 51°11' E 001°44'.

; draft 3.9 m.

Type: Cargo ship. MMSI: 244865000.

Date/timePositionNaut miles runAvg speedWind from/ knotsBaromVisibWave heightAir tempDewpointWater temp
2018-May-21 06:30N 51°11' E 001°44'5 9.4
2018-May-21 06:00N 51°15' E 001°48'4 8.9
2018-May-21 05:31N 51°19' E 001°52'4 7.7
2018-May-21 05:01N 51°22' E 001°56'5 9.1
2018-May-21 04:31N 51°27' E 001°55'4 7.7
2018-May-21 04:00N 51°30' E 001°59'5 9.9
2018-May-21 03:30N 51°33' E 002°04'5 9.3
2018-May-21 03:00N 51°37' E 002°09'5 9.4
2018-May-21 02:30N 51°40' E 002°14'510.2
2018-May-21 02:00N 51°44' E 002°19'510.7
2018-May-21 01:29N 51°49' E 002°25'2210.6
2018-May-20 23:26N 52°10' E 002°22'510.8
2018-May-20 23:00N 52°15' E 002°22'610.6
2018-May-20 22:26N 52°21' E 002°20'710.2
2018-May-20 21:47N 52°27' E 002°18'310.2
2018-May-20 21:27N 52°31' E 002°17'11 9.9
2018-May-20 20:21N 52°41' E 002°11'4 9.2
2018-May-20 19:54N 52°45' E 002°08'7 9.2
2018-May-20 19:07N 52°51' E 002°02'3 8.7
2018-May-20 18:48N 52°53' E 001°59'4 8.8
2018-May-20 18:19N 52°56' E 001°54'4 8.5
2018-May-20 17:52N 52°58' E 001°48'3 8.6
2018-May-20 17:30N 52°60' E 001°44'4 8.5
2018-May-20 17:00N 53°02' E 001°39'4 8.6
2018-May-20 16:30N 53°05' E 001°33'4 8.7
2018-May-20 16:01N 53°07' E 001°27'4 8.9
2018-May-20 15:30N 53°10' E 001°21'4 9.0
2018-May-20 15:00N 53°13' E 001°16'5 9.2
2018-May-20 14:30N 53°16' E 001°10'5 9.5
2018-May-20 14:00N 53°19' E 001°03'3710.3
2018-May-20 10:23N 53°34' E 000°06'4 9.3
2018-May-20 09:57N 53°35' W 000°01'511.2
2018-May-20 09:30N 53°38' W 000°08'510.1
2018-May-20 09:00N 53°42' W 000°13'5 8.7
2018-May-20 08:28N 53°44' W 000°20'1 1.1
2018-May-20 08:00N 53°44' W 000°21'1 1.1
2018-May-20 07:30N 53°44' W 000°22'0 0.0
2018-May-20 06:59N 53°44' W 000°22'0 0.0
2018-May-20 06:27N 53°44' W 000°22'0 0.0
2018-May-20 06:00N 53°44' W 000°22'0 0.0
2018-May-20 05:24N 53°44' W 000°22'0 0.0
2018-May-20 04:59N 53°44' W 000°22'0 0.0
2018-May-20 04:29N 53°44' W 000°22'0 0.0
2018-May-20 03:59N 53°44' W 000°22'0 0.0
2018-May-20 03:30N 53°44' W 000°22'0 0.0
2018-May-20 02:59N 53°44' W 000°22'0 0.0
2018-May-20 02:30N 53°44' W 000°22'0 0.0
2018-May-20 01:59N 53°44' W 000°22'0 0.0
2018-May-20 01:30N 53°44' W 000°22'0 0.0
2018-May-20 00:59N 53°44' W 000°22'0 0.0
2018-May-20 00:29N 53°44' W 000°22'0 0.0
2018-May-19 23:59N 53°44' W 000°22'0 0.0
2018-May-19 23:29N 53°44' W 000°22'0 0.0
2018-May-19 22:59N 53°44' W 000°22'0 0.0
2018-May-19 22:29N 53°44' W 000°22'0 0.0
2018-May-19 21:59N 53°44' W 000°22'0 0.0
2018-May-19 21:29N 53°44' W 000°22'0 0.0
2018-May-19 21:00N 53°44' W 000°22'0 0.0
2018-May-19 20:29N 53°44' W 000°22'0 0.0
2018-May-19 19:59N 53°44' W 000°22'0 0.0
2018-May-19 19:29N 53°44' W 000°22'0 0.0
2018-May-19 18:59N 53°44' W 000°22'0 0.0
2018-May-19 18:29N 53°44' W 000°22'0 0.0
2018-May-19 17:56N 53°44' W 000°22'0 0.0
2018-May-19 17:26N 53°44' W 000°22'0 0.0
2018-May-19 16:59N 53°44' W 000°22'0 0.0
2018-May-19 16:20N 53°44' W 000°22'0 0.0
2018-May-19 15:59N 53°44' W 000°22'0 0.0
2018-May-19 15:29N 53°44' W 000°22'0 0.0
2018-May-19 14:59N 53°44' W 000°22'0 0.0
2018-May-19 14:29N 53°44' W 000°22'0 0.0
2018-May-19 13:59N 53°44' W 000°22'0 0.0
2018-May-19 13:29N 53°44' W 000°22'0 0.0
2018-May-19 12:59N 53°44' W 000°22'0 0.0
2018-May-19 12:29N 53°44' W 000°22'0 0.0
2018-May-19 11:59N 53°44' W 000°22'0 0.0
2018-May-19 11:29N 53°44' W 000°22'0 0.0
2018-May-19 10:59N 53°44' W 000°22'0 0.0
2018-May-19 10:29N 53°44' W 000°22'0 0.0
2018-May-19 09:59N 53°44' W 000°22'0 0.0
2018-May-19 09:29N 53°44' W 000°22'0 0.0
2018-May-19 08:59N 53°44' W 000°22'0 0.2
2018-May-19 08:30N 53°44' W 000°22'1 1.4
2018-May-19 08:00N 53°44' W 000°20'1 1.2
2018-May-19 07:27N 53°44' W 000°19'4 8.0
2018-May-19 07:00N 53°42' W 000°14'5 9.5
2018-May-19 06:30N 53°38' W 000°10'510.4
2018-May-19 06:00N 53°36' W 000°02'  
2018-May-16 14:02N 54°12' E 007°11'0 9.8
2018-May-16 14:00N 54°12' E 007°12'810.1
2018-May-16 13:14N 54°13' E 007°25'310.0
2018-May-16 12:54N 54°12' E 007°30'810.0
2018-May-16 12:07N 54°08' E 007°42'310.2
2018-May-16 11:52N 54°07' E 007°46'410.0
2018-May-16 11:30N 54°05' E 007°52'5 9.6
2018-May-16 10:56N 54°02' E 007°59'7 9.1
2018-May-16 10:08N 54°00' E 008°11'1 9.0
2018-May-16 10:00N 54°00' E 008°13'4 7.8
2018-May-16 09:30N 53°60' E 008°20'4 7.7
2018-May-16 09:00N 53°59' E 008°26'4 7.6
2018-May-16 08:30N 53°58' E 008°33'6 9.4
2018-May-16 07:51N 53°55' E 008°41'412.3
2018-May-16 07:30N 53°51' E 008°45'612.9
2018-May-16 07:00N 53°51' E 008°56'713.8
2018-May-16 06:30N 53°53' E 009°07'612.6
2018-May-16 06:00N 53°52' E 009°18'713.3
2018-May-16 05:30N 53°46' E 009°24'612.9
2018-May-16 05:00N 53°41' E 009°30'612.0
2018-May-16 04:30N 53°36' E 009°36'510.8
2018-May-16 04:00N 53°34' E 009°44'5 9.7
2018-May-16 03:30N 53°33' E 009°52'3 5.8
2018-May-16 03:01N 53°31' E 009°56'0 0.3
2018-May-16 02:29N 53°31' E 009°56'0 0.0
2018-May-16 01:59N 53°31' E 009°56'0 0.0
2018-May-16 01:29N 53°31' E 009°56'0 0.0
2018-May-16 00:59N 53°31' E 009°56'0 0.0
2018-May-16 00:29N 53°31' E 009°56'0 0.0
2018-May-15 23:59N 53°31' E 009°56'0 0.0
2018-May-15 23:29N 53°31' E 009°56'0 0.0
2018-May-15 22:59N 53°31' E 009°56'0 0.0
2018-May-15 22:29N 53°31' E 009°56'0 0.0
2018-May-15 21:59N 53°31' E 009°56'0 0.0
2018-May-15 21:29N 53°31' E 009°56'0 0.0
2018-May-15 20:59N 53°31' E 009°56'0 0.0
2018-May-15 20:29N 53°31' E 009°56'0 0.0
2018-May-15 19:59N 53°31' E 009°56'0 0.0
2018-May-15 19:29N 53°31' E 009°56'0 0.0
2018-May-15 18:59N 53°31' E 009°56'0 0.0
2018-May-15 18:29N 53°31' E 009°56'0 0.0
2018-May-15 17:59N 53°31' E 009°56'0 0.0
2018-May-15 17:26N 53°31' E 009°56'0 0.0
2018-May-15 16:59N 53°31' E 009°56'0 0.0
2018-May-15 16:29N 53°31' E 009°56'0 0.0
2018-May-15 15:59N 53°31' E 009°56'0 0.0
2018-May-15 15:29N 53°31' E 009°56'0 0.0
2018-May-15 14:59N 53°31' E 009°56'0 0.0
2018-May-15 14:29N 53°31' E 009°56'0 0.0
2018-May-15 13:59N 53°31' E 009°56'0 0.0
2018-May-15 13:29N 53°31' E 009°56'0 0.0
2018-May-15 12:59N 53°31' E 009°56'0 0.0
2018-May-15 12:29N 53°31' E 009°56'0 0.0
2018-May-15 11:59N 53°31' E 009°56'0 0.0
2018-May-15 11:29N 53°31' E 009°56'0 0.0
2018-May-15 10:59N 53°31' E 009°56'0 0.0
2018-May-15 10:29N 53°31' E 009°56'0 0.0
2018-May-15 09:59N 53°31' E 009°56'0 0.0
2018-May-15 09:29N 53°31' E 009°56'0 0.0
2018-May-15 09:01N 53°31' E 009°56'1 1.0
2018-May-15 08:30N 53°31' E 009°56'3 6.6
2018-May-15 08:00N 53°33' E 009°51'5 9.0
2018-May-15 07:30N 53°34' E 009°44'5 9.3
2018-May-15 07:00N 53°35' E 009°36'5 9.4
2018-May-15 06:30N 53°39' E 009°31'5 9.2
2018-May-15 06:00N 53°43' E 009°28'4 8.8
2018-May-15 05:31N 53°46' E 009°23'4 8.8
2018-May-15 05:00N 53°50' E 009°20'4 8.4
2018-May-15 04:30N 53°53' E 009°14'4 8.5
2018-May-15 04:01N 53°53' E 009°07'4 8.5
2018-May-15 03:30N 53°51' E 009°00'4 8.8
2018-May-15 03:00N 53°50' E 008°53'4 9.0
2018-May-15 02:30N 53°51' E 008°45'5 9.3
2018-May-15 02:01N 53°55' E 008°41'5 8.8
2018-May-15 01:29N 53°58' E 008°35'5 9.6
2018-May-15 00:58N 53°59' E 008°27'5 9.5
2018-May-15 00:30N 53°59' E 008°19'7210.8
2018-May-14 17:52N 53°37' E 006°24'8 9.3
2018-May-14 17:00N 53°35' E 006°37'610.0
2018-May-14 16:27N 53°32' E 006°44'4 9.9
2018-May-14 16:00N 53°29' E 006°49'0 0.4
2018-May-14 15:30N 53°29' E 006°49'2 3.3
2018-May-14 15:00N 53°27' E 006°50'0 0.0
2018-May-14 14:24N 53°27' E 006°50'0 0.0
2018-May-14 13:45N 53°27' E 006°50'0 0.0
2018-May-14 13:12N 53°27' E 006°50'0 0.0
2018-May-14 12:48N 53°27' E 006°50'0 0.0
2018-May-14 12:30N 53°27' E 006°50'0 0.0
2018-May-14 11:27N 53°27' E 006°50'0 0.0
2018-May-14 08:06N 53°27' E 006°50'0 0.1
2018-May-14 08:00N 53°27' E 006°50'0 0.0
2018-May-14 07:24N 53°27' E 006°50'0 0.0
2018-May-14 06:54N 53°27' E 006°50'0 0.0
2018-May-14 06:24N 53°27' E 006°50'0 0.0
2018-May-14 05:21N 53°27' E 006°50'0 0.0
2018-May-14 05:00N 53°27' E 006°50'0 0.0
2018-May-14 02:54N 53°27' E 006°50'0 0.0
2018-May-13 16:00N 53°27' E 006°50'0 0.0
2018-May-13 15:30N 53°27' E 006°50'0 0.0
2018-May-13 14:57N 53°27' E 006°50'0 0.0
2018-May-13 14:30N 53°27' E 006°50'0 0.0
2018-May-13 13:57N 53°27' E 006°50'0 0.1
2018-May-13 13:30N 53°27' E 006°50'0 0.1
2018-May-13 13:00N 53°27' E 006°50'0 0.0
2018-May-13 12:30N 53°27' E 006°50'0 0.0
2018-May-13 11:57N 53°27' E 006°50'0 0.0
2018-May-13 11:30N 53°27' E 006°50'0 0.0
2018-May-13 10:57N 53°27' E 006°50'0 0.0
2018-May-13 10:27N 53°27' E 006°50'0 0.0
2018-May-13 10:00N 53°27' E 006°50'0 0.0
2018-May-13 09:30N 53°27' E 006°50'0 0.0
2018-May-13 09:00N 53°27' E 006°50'0 0.0
2018-May-13 08:27N 53°27' E 006°50'0 0.0
2018-May-13 07:57N 53°27' E 006°50'0 0.1
2018-May-13 07:30N 53°27' E 006°50'0 0.0
2018-May-13 07:00N 53°27' E 006°50'0 0.0
2018-May-13 06:30N 53°27' E 006°50'0 0.0
2018-May-13 06:00N 53°27' E 006°50'0 0.0
2018-May-13 05:30N 53°27' E 006°50'0 0.0
2018-May-13 05:00N 53°27' E 006°50'0 0.0
2018-May-13 04:30N 53°27' E 006°50'0 0.0
2018-May-13 04:00N 53°27' E 006°50'0 0.0
2018-May-13 03:30N 53°27' E 006°50'0 0.0
2018-May-13 03:00N 53°27' E 006°50'0 0.0
2018-May-13 02:24N 53°27' E 006°50'0 0.0
2018-May-13 02:00N 53°27' E 006°50'0 0.0
2018-May-13 01:30N 53°27' E 006°50'0 0.0
2018-May-13 01:00N 53°27' E 006°50'0 0.0
2018-May-13 00:30N 53°27' E 006°50'0 0.0
2018-May-13 00:00N 53°27' E 006°50'0 0.0
2018-May-12 23:27N 53°27' E 006°50'0 0.0
2018-May-12 23:00N 53°27' E 006°50'0 0.0
2018-May-12 22:30N 53°27' E 006°50'0 0.0
2018-May-12 22:00N 53°27' E 006°50'0 0.0
2018-May-12 21:30N 53°27' E 006°50'0 0.0
2018-May-12 21:00N 53°27' E 006°50'0 0.0
2018-May-12 20:30N 53°27' E 006°50'0 0.0
2018-May-12 19:57N 53°27' E 006°50'0 0.0
2018-May-12 19:30N 53°27' E 006°50'0 0.0
2018-May-12 18:54N 53°27' E 006°50'0 0.0
2018-May-12 18:30N 53°27' E 006°50'0 0.0
2018-May-12 17:54N 53°27' E 006°50'0 0.0
2018-May-12 17:30N 53°27' E 006°50'0 0.0
2018-May-12 17:00N 53°27' E 006°50'0 0.0
2018-May-12 16:30N 53°27' E 006°50'0 0.0
2018-May-12 15:57N 53°27' E 006°50'0 0.0
2018-May-12 15:29N 53°27' E 006°50'0 0.0
2018-May-12 15:00N 53°27' E 006°50'0 0.0
2018-May-12 14:27N 53°27' E 006°50'0 0.0
2018-May-12 14:00N 53°27' E 006°50'0 0.0
2018-May-12 13:30N 53°27' E 006°50'0 0.0
2018-May-12 13:00N 53°27' E 006°50'1 2.5
2018-May-12 12:30N 53°28' E 006°50'  
Track history (hours):
 
Tides and Currents Weather Stations Pressure Air Temp Water Temp Dewpoint Dewpoint Depression Visibility Wind Speed Wind Dir Waves Ship Positions

Velserdijk

Last reported at 2018-May-21 06:30 UTC. Time now 2018-May-21 06:35 UTC.
Position N 51°11' E 001°44'.

; draft 3.9 m.

Type: Cargo ship. MMSI: 244865000.

Date/timePositionNaut miles runAvg speedWind from/ knotsBaromVisibWave heightAir tempDewpointWater temp
2018-May-21 06:30N 51°11' E 001°44'5 9.4
2018-May-21 06:00N 51°15' E 001°48'4 8.9
2018-May-21 05:31N 51°19' E 001°52'4 7.7
2018-May-21 05:01N 51°22' E 001°56'5 9.1
2018-May-21 04:31N 51°27' E 001°55'4 7.7
2018-May-21 04:00N 51°30' E 001°59'5 9.9
2018-May-21 03:30N 51°33' E 002°04'5 9.3
2018-May-21 03:00N 51°37' E 002°09'5 9.4
2018-May-21 02:30N 51°40' E 002°14'510.2
2018-May-21 02:00N 51°44' E 002°19'510.7
2018-May-21 01:29N 51°49' E 002°25'2210.6
2018-May-20 23:26N 52°10' E 002°22'510.8
2018-May-20 23:00N 52°15' E 002°22'610.6
2018-May-20 22:26N 52°21' E 002°20'710.2
2018-May-20 21:47N 52°27' E 002°18'310.2
2018-May-20 21:27N 52°31' E 002°17'11 9.9
2018-May-20 20:21N 52°41' E 002°11'4 9.2
2018-May-20 19:54N 52°45' E 002°08'7 9.2
2018-May-20 19:07N 52°51' E 002°02'3 8.7
2018-May-20 18:48N 52°53' E 001°59'4 8.8
2018-May-20 18:19N 52°56' E 001°54'4 8.5
2018-May-20 17:52N 52°58' E 001°48'3 8.6
2018-May-20 17:30N 52°60' E 001°44'4 8.5
2018-May-20 17:00N 53°02' E 001°39'4 8.6
2018-May-20 16:30N 53°05' E 001°33'4 8.7
2018-May-20 16:01N 53°07' E 001°27'4 8.9
2018-May-20 15:30N 53°10' E 001°21'4 9.0
2018-May-20 15:00N 53°13' E 001°16'5 9.2
2018-May-20 14:30N 53°16' E 001°10'5 9.5
2018-May-20 14:00N 53°19' E 001°03'3710.3
2018-May-20 10:23N 53°34' E 000°06'4 9.3
2018-May-20 09:57N 53°35' W 000°01'511.2
2018-May-20 09:30N 53°38' W 000°08'510.1
2018-May-20 09:00N 53°42' W 000°13'5 8.7
2018-May-20 08:28N 53°44' W 000°20'1 1.1
2018-May-20 08:00N 53°44' W 000°21'1 1.1
2018-May-20 07:30N 53°44' W 000°22'0 0.0
2018-May-20 06:59N 53°44' W 000°22'0 0.0
2018-May-20 06:27N 53°44' W 000°22'0 0.0
2018-May-20 06:00N 53°44' W 000°22'0 0.0
2018-May-20 05:24N 53°44' W 000°22'0 0.0
2018-May-20 04:59N 53°44' W 000°22'0 0.0
2018-May-20 04:29N 53°44' W 000°22'0 0.0
2018-May-20 03:59N 53°44' W 000°22'0 0.0
2018-May-20 03:30N 53°44' W 000°22'0 0.0
2018-May-20 02:59N 53°44' W 000°22'0 0.0
2018-May-20 02:30N 53°44' W 000°22'0 0.0
2018-May-20 01:59N 53°44' W 000°22'0 0.0
2018-May-20 01:30N 53°44' W 000°22'0 0.0
2018-May-20 00:59N 53°44' W 000°22'0 0.0
2018-May-20 00:29N 53°44' W 000°22'0 0.0
2018-May-19 23:59N 53°44' W 000°22'0 0.0
2018-May-19 23:29N 53°44' W 000°22'0 0.0
2018-May-19 22:59N 53°44' W 000°22'0 0.0
2018-May-19 22:29N 53°44' W 000°22'0 0.0
2018-May-19 21:59N 53°44' W 000°22'0 0.0
2018-May-19 21:29N 53°44' W 000°22'0 0.0
2018-May-19 21:00N 53°44' W 000°22'0 0.0
2018-May-19 20:29N 53°44' W 000°22'0 0.0
2018-May-19 19:59N 53°44' W 000°22'0 0.0
2018-May-19 19:29N 53°44' W 000°22'0 0.0
2018-May-19 18:59N 53°44' W 000°22'0 0.0
2018-May-19 18:29N 53°44' W 000°22'0 0.0
2018-May-19 17:56N 53°44' W 000°22'0 0.0
2018-May-19 17:26N 53°44' W 000°22'0 0.0
2018-May-19 16:59N 53°44' W 000°22'0 0.0
2018-May-19 16:20N 53°44' W 000°22'0 0.0
2018-May-19 15:59N 53°44' W 000°22'0 0.0
2018-May-19 15:29N 53°44' W 000°22'0 0.0
2018-May-19 14:59N 53°44' W 000°22'0 0.0
2018-May-19 14:29N 53°44' W 000°22'0 0.0
2018-May-19 13:59N 53°44' W 000°22'0 0.0
2018-May-19 13:29N 53°44' W 000°22'0 0.0
2018-May-19 12:59N 53°44' W 000°22'0 0.0
2018-May-19 12:29N 53°44' W 000°22'0 0.0
2018-May-19 11:59N 53°44' W 000°22'0 0.0
2018-May-19 11:29N 53°44' W 000°22'0 0.0
2018-May-19 10:59N 53°44' W 000°22'0 0.0
2018-May-19 10:29N 53°44' W 000°22'0 0.0
2018-May-19 09:59N 53°44' W 000°22'0 0.0
2018-May-19 09:29N 53°44' W 000°22'0 0.0
2018-May-19 08:59N 53°44' W 000°22'0 0.2
2018-May-19 08:30N 53°44' W 000°22'1 1.4
2018-May-19 08:00N 53°44' W 000°20'1 1.2
2018-May-19 07:27N 53°44' W 000°19'4 8.0
2018-May-19 07:00N 53°42' W 000°14'5 9.5
2018-May-19 06:30N 53°38' W 000°10'510.4
2018-May-19 06:00N 53°36' W 000°02'  
2018-May-16 14:02N 54°12' E 007°11'0 9.8
2018-May-16 14:00N 54°12' E 007°12'810.1
2018-May-16 13:14N 54°13' E 007°25'310.0
2018-May-16 12:54N 54°12' E 007°30'810.0
2018-May-16 12:07N 54°08' E 007°42'310.2
2018-May-16 11:52N 54°07' E 007°46'410.0
2018-May-16 11:30N 54°05' E 007°52'5 9.6
2018-May-16 10:56N 54°02' E 007°59'7 9.1
2018-May-16 10:08N 54°00' E 008°11'1 9.0
2018-May-16 10:00N 54°00' E 008°13'4 7.8
2018-May-16 09:30N 53°60' E 008°20'4 7.7
2018-May-16 09:00N 53°59' E 008°26'4 7.6
2018-May-16 08:30N 53°58' E 008°33'6 9.4
2018-May-16 07:51N 53°55' E 008°41'412.3
2018-May-16 07:30N 53°51' E 008°45'612.9
2018-May-16 07:00N 53°51' E 008°56'713.8
2018-May-16 06:30N 53°53' E 009°07'612.6
2018-May-16 06:00N 53°52' E 009°18'713.3
2018-May-16 05:30N 53°46' E 009°24'612.9
2018-May-16 05:00N 53°41' E 009°30'612.0
2018-May-16 04:30N 53°36' E 009°36'510.8
2018-May-16 04:00N 53°34' E 009°44'5 9.7
2018-May-16 03:30N 53°33' E 009°52'3 5.8
2018-May-16 03:01N 53°31' E 009°56'0 0.3
2018-May-16 02:29N 53°31' E 009°56'0 0.0
2018-May-16 01:59N 53°31' E 009°56'0 0.0
2018-May-16 01:29N 53°31' E 009°56'0 0.0
2018-May-16 00:59N 53°31' E 009°56'0 0.0
2018-May-16 00:29N 53°31' E 009°56'0 0.0
2018-May-15 23:59N 53°31' E 009°56'0 0.0
2018-May-15 23:29N 53°31' E 009°56'0 0.0
2018-May-15 22:59N 53°31' E 009°56'0 0.0
2018-May-15 22:29N 53°31' E 009°56'0 0.0
2018-May-15 21:59N 53°31' E 009°56'0 0.0
2018-May-15 21:29N 53°31' E 009°56'0 0.0
2018-May-15 20:59N 53°31' E 009°56'0 0.0
2018-May-15 20:29N 53°31' E 009°56'0 0.0
2018-May-15 19:59N 53°31' E 009°56'0 0.0
2018-May-15 19:29N 53°31' E 009°56'0 0.0
2018-May-15 18:59N 53°31' E 009°56'0 0.0
2018-May-15 18:29N 53°31' E 009°56'0 0.0
2018-May-15 17:59N 53°31' E 009°56'0 0.0
2018-May-15 17:26N 53°31' E 009°56'0 0.0
2018-May-15 16:59N 53°31' E 009°56'0 0.0
2018-May-15 16:29N 53°31' E 009°56'0 0.0
2018-May-15 15:59N 53°31' E 009°56'0 0.0
2018-May-15 15:29N 53°31' E 009°56'0 0.0
2018-May-15 14:59N 53°31' E 009°56'0 0.0
2018-May-15 14:29N 53°31' E 009°56'0 0.0
2018-May-15 13:59N 53°31' E 009°56'0 0.0
2018-May-15 13:29N 53°31' E 009°56'0 0.0
2018-May-15 12:59N 53°31' E 009°56'0 0.0
2018-May-15 12:29N 53°31' E 009°56'0 0.0
2018-May-15 11:59N 53°31' E 009°56'0 0.0
2018-May-15 11:29N 53°31' E 009°56'0 0.0
2018-May-15 10:59N 53°31' E 009°56'0 0.0
2018-May-15 10:29N 53°31' E 009°56'0 0.0
2018-May-15 09:59N 53°31' E 009°56'0 0.0
2018-May-15 09:29N 53°31' E 009°56'0 0.0
2018-May-15 09:01N 53°31' E 009°56'1 1.0
2018-May-15 08:30N 53°31' E 009°56'3 6.6
2018-May-15 08:00N 53°33' E 009°51'5 9.0
2018-May-15 07:30N 53°34' E 009°44'5 9.3
2018-May-15 07:00N 53°35' E 009°36'5 9.4
2018-May-15 06:30N 53°39' E 009°31'5 9.2
2018-May-15 06:00N 53°43' E 009°28'4 8.8
2018-May-15 05:31N 53°46' E 009°23'4 8.8
2018-May-15 05:00N 53°50' E 009°20'4 8.4
2018-May-15 04:30N 53°53' E 009°14'4 8.5
2018-May-15 04:01N 53°53' E 009°07'4 8.5
2018-May-15 03:30N 53°51' E 009°00'4 8.8
2018-May-15 03:00N 53°50' E 008°53'4 9.0
2018-May-15 02:30N 53°51' E 008°45'5 9.3
2018-May-15 02:01N 53°55' E 008°41'5 8.8
2018-May-15 01:29N 53°58' E 008°35'5 9.6
2018-May-15 00:58N 53°59' E 008°27'5 9.5
2018-May-15 00:30N 53°59' E 008°19'7210.8
2018-May-14 17:52N 53°37' E 006°24'8 9.3
2018-May-14 17:00N 53°35' E 006°37'610.0
2018-May-14 16:27N 53°32' E 006°44'4 9.9
2018-May-14 16:00N 53°29' E 006°49'0 0.4
2018-May-14 15:30N 53°29' E 006°49'2 3.3
2018-May-14 15:00N 53°27' E 006°50'0 0.0
2018-May-14 14:24N 53°27' E 006°50'0 0.0
2018-May-14 13:45N 53°27' E 006°50'0 0.0
2018-May-14 13:12N 53°27' E 006°50'0 0.0
2018-May-14 12:48N 53°27' E 006°50'0 0.0
2018-May-14 12:30N 53°27' E 006°50'0 0.0
2018-May-14 11:27N 53°27' E 006°50'0 0.0
2018-May-14 08:06N 53°27' E 006°50'0 0.1
2018-May-14 08:00N 53°27' E 006°50'0 0.0
2018-May-14 07:24N 53°27' E 006°50'0 0.0
2018-May-14 06:54N 53°27' E 006°50'0 0.0
2018-May-14 06:24N 53°27' E 006°50'0 0.0
2018-May-14 05:21N 53°27' E 006°50'0 0.0
2018-May-14 05:00N 53°27' E 006°50'0 0.0
2018-May-14 02:54N 53°27' E 006°50'0 0.0
2018-May-13 16:00N 53°27' E 006°50'0 0.0
2018-May-13 15:30N 53°27' E 006°50'0 0.0
2018-May-13 14:57N 53°27' E 006°50'0 0.0
2018-May-13 14:30N 53°27' E 006°50'0 0.0
2018-May-13 13:57N 53°27' E 006°50'0 0.1
2018-May-13 13:30N 53°27' E 006°50'0 0.1
2018-May-13 13:00N 53°27' E 006°50'0 0.0
2018-May-13 12:30N 53°27' E 006°50'0 0.0
2018-May-13 11:57N 53°27' E 006°50'0 0.0
2018-May-13 11:30N 53°27' E 006°50'0 0.0
2018-May-13 10:57N 53°27' E 006°50'0 0.0
2018-May-13 10:27N 53°27' E 006°50'0 0.0
2018-May-13 10:00N 53°27' E 006°50'0 0.0
2018-May-13 09:30N 53°27' E 006°50'0 0.0
2018-May-13 09:00N 53°27' E 006°50'0 0.0
2018-May-13 08:27N 53°27' E 006°50'0 0.0
2018-May-13 07:57N 53°27' E 006°50'0 0.1
2018-May-13 07:30N 53°27' E 006°50'0 0.0
2018-May-13 07:00N 53°27' E 006°50'0 0.0
2018-May-13 06:30N 53°27' E 006°50'0 0.0
2018-May-13 06:00N 53°27' E 006°50'0 0.0
2018-May-13 05:30N 53°27' E 006°50'0 0.0
2018-May-13 05:00N 53°27' E 006°50'0 0.0
2018-May-13 04:30N 53°27' E 006°50'0 0.0
2018-May-13 04:00N 53°27' E 006°50'0 0.0
2018-May-13 03:30N 53°27' E 006°50'0 0.0
2018-May-13 03:00N 53°27' E 006°50'0 0.0
2018-May-13 02:24N 53°27' E 006°50'0 0.0
2018-May-13 02:00N 53°27' E 006°50'0 0.0
2018-May-13 01:30N 53°27' E 006°50'0 0.0
2018-May-13 01:00N 53°27' E 006°50'0 0.0
2018-May-13 00:30N 53°27' E 006°50'0 0.0
2018-May-13 00:00N 53°27' E 006°50'0 0.0
2018-May-12 23:27N 53°27' E 006°50'0 0.0
2018-May-12 23:00N 53°27' E 006°50'0 0.0
2018-May-12 22:30N 53°27' E 006°50'0 0.0
2018-May-12 22:00N 53°27' E 006°50'0 0.0
2018-May-12 21:30N 53°27' E 006°50'0 0.0
2018-May-12 21:00N 53°27' E 006°50'0 0.0
2018-May-12 20:30N 53°27' E 006°50'0 0.0
2018-May-12 19:57N 53°27' E 006°50'0 0.0
2018-May-12 19:30N 53°27' E 006°50'0 0.0
2018-May-12 18:54N 53°27' E 006°50'0 0.0
2018-May-12 18:30N 53°27' E 006°50'0 0.0
2018-May-12 17:54N 53°27' E 006°50'0 0.0
2018-May-12 17:30N 53°27' E 006°50'0 0.0
2018-May-12 17:00N 53°27' E 006°50'0 0.0
2018-May-12 16:30N 53°27' E 006°50'0 0.0
2018-May-12 15:57N 53°27' E 006°50'0 0.0
2018-May-12 15:29N 53°27' E 006°50'0 0.0
2018-May-12 15:00N 53°27' E 006°50'0 0.0
2018-May-12 14:27N 53°27' E 006°50'0 0.0
2018-May-12 14:00N 53°27' E 006°50'0 0.0
2018-May-12 13:30N 53°27' E 006°50'0 0.0
2018-May-12 13:00N 53°27' E 006°50'1 2.5
2018-May-12 12:30N 53°28' E 006°50'  

Dump ship's entire track history